createdAt,value
2022-12-31T00:00:24.065Z,88.19
2022-12-31T00:02:52.034Z,88.45
2022-12-31T00:05:19.616Z,88.90
2022-12-31T00:07:47.144Z,86.97
2022-12-31T00:10:15.001Z,87.92
2022-12-31T00:12:42.505Z,89.27
2022-12-31T00:15:10.029Z,87.97
2022-12-31T00:17:37.794Z,88.63
2022-12-31T00:20:06.024Z,89.09
2022-12-31T00:22:33.544Z,89.66
2022-12-31T00:25:01.550Z,88.27
2022-12-31T00:27:32.343Z,88.27
2022-12-31T00:30:04.466Z,89.53
2022-12-31T00:32:33.201Z,90.34
2022-12-31T00:35:00.738Z,89.53
2022-12-31T00:37:28.277Z,88.74
2022-12-31T00:39:56.118Z,89.72
2022-12-31T00:42:23.711Z,88.50
2022-12-31T00:44:51.183Z,90.03
2022-12-31T00:47:18.972Z,90.90
2022-12-31T00:49:46.455Z,89.58
2022-12-31T00:52:15.933Z,89.43
2022-12-31T00:54:43.948Z,89.57
2022-12-31T00:57:11.433Z,90.56
2022-12-31T00:59:39.018Z,90.22
2022-12-31T01:02:07.051Z,89.90
2022-12-31T01:04:34.614Z,89.84
2022-12-31T01:07:02.136Z,89.97
2022-12-31T01:09:29.979Z,89.66
2022-12-31T01:11:57.452Z,89.50
2022-12-31T01:14:25.016Z,89.71
2022-12-31T01:16:54.025Z,90.84
2022-12-31T01:19:28.020Z,90.27
2022-12-31T01:21:56.350Z,90.12
2022-12-31T01:24:24.211Z,90.27
2022-12-31T01:26:51.977Z,90.04
2022-12-31T01:29:19.795Z,89.80
2022-12-31T01:31:47.364Z,89.97
2022-12-31T01:34:14.851Z,89.48
2022-12-31T01:36:42.666Z,89.43
2022-12-31T01:39:11.830Z,90.62
2022-12-31T01:41:43.091Z,90.23
2022-12-31T01:44:13.854Z,88.64
2022-12-31T01:46:56.643Z,88.16
2022-12-31T01:49:30.205Z,87.88
2022-12-31T01:52:25.465Z,88.33
2022-12-31T01:55:21.429Z,88.02
2022-12-31T01:57:56.400Z,87.40
2022-12-31T02:00:24.397Z,86.76
2022-12-31T02:02:53.354Z,87.50
2022-12-31T02:05:31.799Z,87.78
2022-12-31T02:08:00.014Z,87.18
2022-12-31T02:10:27.532Z,87.28
2022-12-31T02:12:55.213Z,86.73
2022-12-31T02:15:34.046Z,86.49
2022-12-31T02:18:11.790Z,87.59
2022-12-31T02:21:07.265Z,87.85
2022-12-31T02:24:13.516Z,88.35
2022-12-31T02:26:44.102Z,88.39
2022-12-31T02:29:39.760Z,87.67
2022-12-31T02:32:30.607Z,87.15
2022-12-31T02:35:07.504Z,87.12
2022-12-31T02:37:39.357Z,87.45
2022-12-31T02:40:12.132Z,86.87
2022-12-31T02:42:39.913Z,87.83
2022-12-31T02:45:10.174Z,87.51
2022-12-31T02:47:46.496Z,86.90
2022-12-31T02:50:22.500Z,87.23
2022-12-31T02:53:14.627Z,88.18
2022-12-31T02:56:01.096Z,88.53
2022-12-31T02:58:50.294Z,88.49
2022-12-31T03:01:43.342Z,88.60
2022-12-31T03:04:32.303Z,87.97
2022-12-31T03:07:12.564Z,87.30
2022-12-31T03:09:40.161Z,86.72
2022-12-31T03:12:29.518Z,87.07
2022-12-31T03:14:57.364Z,87.22
2022-12-31T03:17:25.463Z,86.21
2022-12-31T03:20:11.444Z,85.79
2022-12-31T03:22:41.742Z,87.66
2022-12-31T03:25:37.995Z,88.36
2022-12-31T03:28:12.396Z,87.10
2022-12-31T03:30:42.318Z,86.05
2022-12-31T03:33:10.161Z,86.62
2022-12-31T03:35:39.814Z,88.90
2022-12-31T03:38:07.711Z,87.96
2022-12-31T03:40:50.718Z,87.19
2022-12-31T03:43:19.689Z,89.03
2022-12-31T03:45:52.424Z,88.22
2022-12-31T03:48:24.257Z,87.94
2022-12-31T03:50:52.210Z,87.47
2022-12-31T03:53:20.089Z,88.43
2022-12-31T03:55:52.108Z,88.03
2022-12-31T03:58:20.060Z,87.40
2022-12-31T04:00:47.584Z,86.81
2022-12-31T04:03:15.528Z,86.75
2022-12-31T04:05:43.131Z,86.41
2022-12-31T04:08:10.794Z,87.05
2022-12-31T04:10:38.639Z,86.55
2022-12-31T04:13:06.142Z,86.11
2022-12-31T04:15:33.677Z,86.75
2022-12-31T04:18:01.460Z,87.53
2022-12-31T04:20:28.971Z,86.83
2022-12-31T04:22:56.696Z,86.39
2022-12-31T04:25:24.510Z,87.50
2022-12-31T04:27:52.048Z,88.07
2022-12-31T04:30:19.640Z,88.08
2022-12-31T04:32:47.488Z,87.98
2022-12-31T04:35:15.019Z,87.99
2022-12-31T04:37:42.552Z,87.82
2022-12-31T04:40:10.735Z,88.49
2022-12-31T04:42:38.660Z,88.78
2022-12-31T04:45:07.096Z,88.43
2022-12-31T04:47:34.961Z,87.27
2022-12-31T04:50:02.469Z,86.92
2022-12-31T04:52:30.054Z,87.17
2022-12-31T04:54:57.881Z,86.95
2022-12-31T04:57:25.429Z,85.94
2022-12-31T04:59:52.937Z,85.75
2022-12-31T05:02:20.887Z,85.87
2022-12-31T05:04:48.457Z,85.14
2022-12-31T05:07:15.893Z,84.29
2022-12-31T05:09:43.719Z,85.29
2022-12-31T05:12:11.195Z,85.16
2022-12-31T05:14:38.742Z,85.24
2022-12-31T05:17:06.554Z,86.31
2022-12-31T05:19:34.077Z,86.54
2022-12-31T05:22:20.325Z,87.82
2022-12-31T05:24:48.109Z,88.42
2022-12-31T05:27:15.592Z,88.40
2022-12-31T05:29:43.098Z,88.29
2022-12-31T05:32:10.900Z,87.38
2022-12-31T05:34:38.422Z,86.98
2022-12-31T05:37:06.006Z,87.10
2022-12-31T05:39:33.833Z,87.53
2022-12-31T05:42:01.380Z,87.49
2022-12-31T05:44:28.889Z,87.69
2022-12-31T05:46:56.721Z,87.94
2022-12-31T05:49:24.211Z,88.06
2022-12-31T05:51:51.681Z,88.24
2022-12-31T05:54:19.536Z,88.14
2022-12-31T05:56:47.062Z,88.55
2022-12-31T05:59:14.629Z,88.27
2022-12-31T06:01:42.478Z,88.01
2022-12-31T06:04:10.302Z,87.83
2022-12-31T06:06:37.812Z,87.72
2022-12-31T06:09:05.411Z,87.84
2022-12-31T06:11:33.307Z,87.74
2022-12-31T06:14:00.927Z,87.47
2022-12-31T06:16:29.952Z,87.38
2022-12-31T06:18:57.772Z,87.20
2022-12-31T06:21:25.248Z,87.11
2022-12-31T06:23:52.874Z,86.97
2022-12-31T06:26:20.699Z,86.89
2022-12-31T06:28:48.356Z,86.62
2022-12-31T06:31:16.007Z,86.52
2022-12-31T06:33:43.932Z,86.50
2022-12-31T06:36:15.862Z,86.52
2022-12-31T06:38:44.945Z,86.26
2022-12-31T06:41:14.944Z,86.21
2022-12-31T06:43:43.251Z,86.04
2022-12-31T06:46:16.331Z,85.85
2022-12-31T06:48:45.034Z,85.84
2022-12-31T06:51:17.794Z,85.80
2022-12-31T06:53:46.932Z,85.80
2022-12-31T06:56:31.350Z,85.79
2022-12-31T06:59:02.301Z,85.73
2022-12-31T07:02:02.284Z,85.70
2022-12-31T07:04:57.526Z,85.37
2022-12-31T07:07:37.011Z,85.18
2022-12-31T07:10:34.564Z,84.97
2022-12-31T07:13:33.987Z,85.22
2022-12-31T07:16:10.702Z,85.12
2022-12-31T07:18:50.569Z,84.84
2022-12-31T07:21:28.745Z,84.63
2022-12-31T07:23:56.732Z,84.31
2022-12-31T07:26:49.935Z,84.14
2022-12-31T07:29:23.314Z,83.54
2022-12-31T07:32:34.910Z,83.15
2022-12-31T07:35:32.961Z,83.05
2022-12-31T07:38:15.186Z,82.53
2022-12-31T07:41:11.015Z,82.38
2022-12-31T07:44:08.605Z,82.19
2022-12-31T07:46:56.147Z,81.89
2022-12-31T07:49:25.132Z,81.65
2022-12-31T07:51:53.568Z,81.53
2022-12-31T07:54:21.490Z,81.21
2022-12-31T07:56:50.306Z,80.94
2022-12-31T07:59:30.225Z,79.90
2022-12-31T08:02:16.301Z,79.75
2022-12-31T08:04:56.241Z,79.06
2022-12-31T08:07:49.811Z,78.42
2022-12-31T08:10:39.326Z,78.01
2022-12-31T08:13:11.481Z,77.11
2022-12-31T08:15:41.068Z,76.66
2022-12-31T08:18:09.129Z,76.12
2022-12-31T08:20:55.793Z,75.78
2022-12-31T08:23:40.484Z,75.26
2022-12-31T08:26:26.110Z,74.28
2022-12-31T08:29:25.116Z,73.65
2022-12-31T08:32:00.146Z,73.27
2022-12-31T08:34:46.729Z,72.48
2022-12-31T08:37:20.741Z,71.93
2022-12-31T08:40:13.572Z,71.11
2022-12-31T08:42:56.660Z,69.94
2022-12-31T08:45:39.298Z,69.26
2022-12-31T08:48:46.046Z,70.35
2022-12-31T08:51:20.081Z,67.37
2022-12-31T08:53:48.586Z,63.87
2022-12-31T08:56:24.337Z,63.60
2022-12-31T08:58:57.528Z,61.86
2022-12-31T09:01:30.584Z,62.65
2022-12-31T09:04:10.124Z,60.32
2022-12-31T09:06:48.953Z,59.69
2022-12-31T09:09:51.272Z,61.42
2022-12-31T09:12:33.606Z,62.52
2022-12-31T09:15:13.241Z,62.52
2022-12-31T09:17:46.812Z,62.28
2022-12-31T09:20:16.145Z,61.96
2022-12-31T09:22:44.289Z,61.76
2022-12-31T09:25:17.004Z,61.20
2022-12-31T09:27:58.638Z,61.68
2022-12-31T09:30:28.948Z,60.41
2022-12-31T09:33:20.660Z,60.43
2022-12-31T09:35:58.295Z,59.95
2022-12-31T09:38:48.439Z,61.04
2022-12-31T09:41:31.144Z,61.03
2022-12-31T09:44:20.463Z,61.23
2022-12-31T09:47:20.384Z,60.26
2022-12-31T09:50:16.161Z,60.09
2022-12-31T09:53:12.534Z,59.74
2022-12-31T09:55:48.562Z,59.31
2022-12-31T09:58:28.010Z,59.14
2022-12-31T10:01:42.409Z,58.05
2022-12-31T10:04:25.601Z,59.06
2022-12-31T10:06:55.916Z,57.19
2022-12-31T10:09:39.560Z,56.87
2022-12-31T10:12:36.149Z,56.39
2022-12-31T10:15:22.391Z,56.26
2022-12-31T10:18:15.966Z,55.60
2022-12-31T10:20:45.605Z,56.09
2022-12-31T10:23:25.246Z,55.08
2022-12-31T10:26:18.652Z,55.14
2022-12-31T10:28:54.073Z,55.10
2022-12-31T10:31:38.307Z,55.73
2022-12-31T10:34:42.819Z,55.63
2022-12-31T10:37:18.346Z,55.58
2022-12-31T10:40:10.433Z,56.06
2022-12-31T10:42:59.763Z,56.81
2022-12-31T10:45:52.219Z,57.47
2022-12-31T10:48:26.064Z,58.15
2022-12-31T10:51:27.482Z,58.79
2022-12-31T10:53:55.257Z,59.09
2022-12-31T10:56:41.729Z,60.15
2022-12-31T10:59:34.155Z,60.29
2022-12-31T11:02:07.672Z,61.18
2022-12-31T11:05:07.028Z,61.70
2022-12-31T11:08:02.500Z,62.10
2022-12-31T11:11:00.746Z,63.14
2022-12-31T11:13:57.960Z,62.91
2022-12-31T11:16:46.787Z,64.06
2022-12-31T11:19:17.081Z,64.12
2022-12-31T11:21:47.958Z,63.95
2022-12-31T11:24:34.660Z,65.09
2022-12-31T11:27:47.615Z,64.54
2022-12-31T11:30:25.448Z,64.40
2022-12-31T11:33:17.942Z,64.69
2022-12-31T11:36:03.749Z,64.28
2022-12-31T11:38:40.815Z,64.61
2022-12-31T11:41:43.667Z,64.75
2022-12-31T11:44:23.633Z,64.89
2022-12-31T11:47:15.678Z,65.09
2022-12-31T11:50:03.726Z,64.92
2022-12-31T11:52:38.436Z,65.03
2022-12-31T11:55:27.877Z,64.89
2022-12-31T11:58:01.983Z,65.06
2022-12-31T12:00:32.068Z,63.84
2022-12-31T12:03:04.591Z,63.47
2022-12-31T12:05:33.819Z,63.28
2022-12-31T12:08:02.997Z,63.10
2022-12-31T12:10:37.315Z,62.99
2022-12-31T12:13:17.378Z,63.64
2022-12-31T12:15:54.722Z,63.44
2022-12-31T12:18:34.576Z,64.12
2022-12-31T12:21:23.358Z,63.91
2022-12-31T12:23:55.689Z,64.29
2022-12-31T12:26:38.386Z,64.08
2022-12-31T12:29:13.074Z,63.76
2022-12-31T12:31:41.232Z,63.36
2022-12-31T12:34:27.716Z,63.80
2022-12-31T12:36:55.796Z,63.95
2022-12-31T12:39:32.796Z,64.18
2022-12-31T12:42:13.664Z,64.78
2022-12-31T12:44:42.073Z,64.75
2022-12-31T12:47:15.581Z,64.93
2022-12-31T12:49:49.679Z,64.97
2022-12-31T12:53:05.201Z,65.06
2022-12-31T12:55:58.139Z,65.29
2022-12-31T12:58:44.683Z,65.06
2022-12-31T13:01:42.730Z,64.65
2022-12-31T13:04:47.228Z,64.57
2022-12-31T13:07:33.332Z,64.05
2022-12-31T13:10:22.735Z,64.20
2022-12-31T13:13:23.962Z,64.16
2022-12-31T13:16:24.177Z,64.21
2022-12-31T13:19:16.733Z,65.02
2022-12-31T13:21:55.853Z,65.55
2022-12-31T13:24:32.577Z,65.55
2022-12-31T13:27:05.776Z,66.21
2022-12-31T13:29:36.074Z,66.24
2022-12-31T13:32:07.928Z,66.33
2022-12-31T13:34:41.698Z,66.62
2022-12-31T13:37:27.320Z,67.20
2022-12-31T13:40:26.826Z,67.06
2022-12-31T13:43:13.528Z,67.02
2022-12-31T13:45:45.456Z,67.07
2022-12-31T13:48:18.781Z,67.30
2022-12-31T13:51:01.676Z,67.11
2022-12-31T13:54:01.932Z,66.84
2022-12-31T13:56:37.166Z,66.48
2022-12-31T13:59:29.593Z,66.12
2022-12-31T14:02:25.704Z,65.34
2022-12-31T14:05:00.222Z,65.60
2022-12-31T14:07:40.421Z,65.71
2022-12-31T14:10:20.903Z,65.78
2022-12-31T14:12:54.883Z,65.80
2022-12-31T14:15:33.636Z,65.80
2022-12-31T14:18:45.521Z,65.81
2022-12-31T14:21:28.193Z,65.76
2022-12-31T14:24:30.752Z,66.10
2022-12-31T14:27:05.619Z,66.17
2022-12-31T14:29:40.669Z,66.45
2022-12-31T14:32:17.569Z,66.50
2022-12-31T14:35:03.633Z,66.45
2022-12-31T14:37:40.897Z,66.79
2022-12-31T14:40:30.333Z,66.94
2022-12-31T14:43:25.483Z,67.15
2022-12-31T14:46:20.737Z,67.49
2022-12-31T14:48:58.513Z,67.91
2022-12-31T14:51:30.289Z,68.19
2022-12-31T14:53:58.875Z,68.50
2022-12-31T14:56:41.729Z,68.64
2022-12-31T14:59:28.823Z,68.90
2022-12-31T15:01:58.782Z,69.34
2022-12-31T15:04:43.535Z,69.35
2022-12-31T15:07:30.417Z,69.49
2022-12-31T15:10:04.524Z,69.95
2022-12-31T15:12:59.296Z,70.27
2022-12-31T15:15:54.356Z,70.33
2022-12-31T15:18:40.893Z,70.53
2022-12-31T15:21:40.882Z,70.54
2022-12-31T15:24:27.742Z,70.52
2022-12-31T15:26:59.291Z,70.49
2022-12-31T15:29:49.105Z,70.68
2022-12-31T15:32:20.532Z,71.26
2022-12-31T15:34:48.364Z,71.39
2022-12-31T15:37:35.189Z,71.47
2022-12-31T15:40:25.182Z,71.76
2022-12-31T15:43:02.558Z,76.65
2022-12-31T15:45:48.768Z,76.22
2022-12-31T15:48:26.609Z,73.26
2022-12-31T15:50:58.652Z,74.10
2022-12-31T15:53:34.764Z,74.50
2022-12-31T15:56:03.422Z,73.98
2022-12-31T15:58:35.869Z,73.25
2022-12-31T16:01:22.102Z,73.38
2022-12-31T16:04:28.922Z,73.90
2022-12-31T16:07:03.072Z,72.91
2022-12-31T16:09:34.330Z,72.78
2022-12-31T16:12:08.908Z,71.54
2022-12-31T16:14:37.922Z,72.53
2022-12-31T16:17:06.617Z,69.91
2022-12-31T16:19:42.589Z,70.25
2022-12-31T16:22:23.801Z,71.38
2022-12-31T16:25:29.586Z,72.28
2022-12-31T16:27:52.462Z,73.10
2022-12-31T16:30:27.432Z,73.99
2022-12-31T16:33:12.082Z,74.80
2022-12-31T16:35:39.714Z,74.78
2022-12-31T16:38:12.297Z,74.91
2022-12-31T16:40:41.816Z,75.35
2022-12-31T16:43:25.300Z,75.28
2022-12-31T16:45:55.176Z,75.52
2022-12-31T16:48:23.309Z,75.85
2022-12-31T16:50:56.356Z,75.67
2022-12-31T16:53:27.006Z,75.70
2022-12-31T16:56:06.937Z,75.95
2022-12-31T16:58:42.747Z,75.16
2022-12-31T17:01:13.829Z,75.21
2022-12-31T17:03:46.775Z,76.29
2022-12-31T17:06:19.615Z,76.45
2022-12-31T17:08:54.808Z,76.61
2022-12-31T17:11:33.785Z,76.35
2022-12-31T17:14:10.547Z,76.36
2022-12-31T17:16:59.701Z,76.54
2022-12-31T17:19:46.076Z,76.34
2022-12-31T17:22:31.825Z,76.57
2022-12-31T17:25:07.530Z,76.42
2022-12-31T17:27:36.475Z,76.62
2022-12-31T17:30:42.768Z,76.74
2022-12-31T17:33:13.251Z,76.94
2022-12-31T17:35:43.755Z,76.65
2022-12-31T17:38:23.548Z,77.44
2022-12-31T17:41:06.647Z,77.14
2022-12-31T17:43:38.532Z,77.35
2022-12-31T17:46:14.020Z,77.45
2022-12-31T17:48:42.870Z,77.17
2022-12-31T17:51:11.085Z,76.84
2022-12-31T17:53:38.612Z,76.62
2022-12-31T17:56:16.721Z,76.52
2022-12-31T17:58:54.439Z,76.45
2022-12-31T18:01:23.785Z,76.71
2022-12-31T18:03:51.770Z,76.31
2022-12-31T18:06:22.261Z,76.73
2022-12-31T18:08:49.844Z,76.80
2022-12-31T18:11:22.929Z,77.29
2022-12-31T18:13:50.915Z,76.82
2022-12-31T18:16:18.742Z,77.19
2022-12-31T18:18:46.242Z,77.11
2022-12-31T18:21:29.474Z,77.77
2022-12-31T18:26:24.936Z,77.54
2022-12-31T18:28:53.125Z,78.01
2022-12-31T18:31:29.743Z,77.27
2022-12-31T18:33:59.119Z,77.64
2022-12-31T18:36:28.517Z,77.70
2022-12-31T18:40:28.671Z,76.03
2022-12-31T18:43:02.708Z,76.03
2022-12-31T18:45:32.372Z,78.34
2022-12-31T18:48:00.224Z,78.89
2022-12-31T18:50:27.991Z,78.21
2022-12-31T18:52:55.480Z,78.32
2022-12-31T18:55:32.296Z,78.62
2022-12-31T18:57:59.770Z,78.62
2022-12-31T19:00:27.574Z,79.12
2022-12-31T19:02:55.122Z,79.00
2022-12-31T19:05:28.772Z,79.00
2022-12-31T19:07:57.261Z,79.68
2022-12-31T19:10:26.268Z,79.78
2022-12-31T19:12:53.940Z,79.61
2022-12-31T19:15:26.805Z,79.59
2022-12-31T19:17:54.330Z,79.54
2022-12-31T19:20:23.013Z,79.18
2022-12-31T19:22:50.548Z,78.85
2022-12-31T19:25:20.049Z,78.21
2022-12-31T19:27:48.260Z,79.43
2022-12-31T19:30:18.079Z,79.47
2022-12-31T19:32:45.653Z,79.37
2022-12-31T19:35:14.496Z,79.61
2022-12-31T19:37:44.202Z,79.44
2022-12-31T19:40:24.672Z,79.62
2022-12-31T19:42:54.861Z,79.50
2022-12-31T19:45:25.078Z,79.33
2022-12-31T19:47:53.970Z,79.58
2022-12-31T19:50:28.495Z,79.91
2022-12-31T19:52:58.515Z,80.01
2022-12-31T19:55:26.432Z,80.56
2022-12-31T19:57:54.274Z,80.84
2022-12-31T20:00:22.277Z,80.71
2022-12-31T20:02:50.274Z,80.58
2022-12-31T20:05:19.558Z,80.40
2022-12-31T20:07:47.158Z,80.10
2022-12-31T20:10:15.089Z,80.10
2022-12-31T20:12:44.801Z,80.04
2022-12-31T20:15:12.436Z,79.92
2022-12-31T20:17:40.574Z,79.62
2022-12-31T20:20:08.669Z,78.90
2022-12-31T20:22:36.437Z,79.07
2022-12-31T20:25:04.571Z,78.83
2022-12-31T20:27:32.086Z,79.04
2022-12-31T20:29:59.661Z,79.43
2022-12-31T20:32:27.618Z,79.02
2022-12-31T20:34:55.133Z,79.71
2022-12-31T20:37:22.691Z,80.50
2022-12-31T20:39:50.533Z,80.61
2022-12-31T20:42:18.026Z,80.54
2022-12-31T20:44:45.572Z,80.52
2022-12-31T20:47:13.413Z,80.36
2022-12-31T20:52:28.808Z,80.99
2022-12-31T20:54:56.433Z,80.68
2022-12-31T20:57:26.552Z,80.82
2022-12-31T20:59:56.652Z,80.55
2022-12-31T21:02:39.259Z,80.68
2022-12-31T21:05:09.734Z,80.76
2022-12-31T21:07:37.379Z,80.86
2022-12-31T21:10:05.487Z,81.19
2022-12-31T21:15:13.784Z,81.28
2022-12-31T21:20:09.768Z,81.46
2022-12-31T21:22:37.378Z,81.84
2022-12-31T21:25:05.729Z,81.99
2022-12-31T21:27:33.290Z,82.02
2022-12-31T21:32:48.780Z,82.01
2022-12-31T21:35:43.443Z,82.26
2022-12-31T21:38:06.067Z,82.16
2022-12-31T21:40:33.967Z,82.07
2022-12-31T21:43:01.511Z,81.97
2022-12-31T21:45:29.467Z,81.75
2022-12-31T21:48:19.672Z,81.74
2022-12-31T21:51:09.724Z,81.77
2022-12-31T21:53:37.603Z,81.36
2022-12-31T21:56:09.221Z,81.62
2022-12-31T21:58:42.696Z,81.47
2022-12-31T22:01:40.468Z,81.41
2022-12-31T22:04:28.085Z,81.21
2022-12-31T22:06:55.913Z,81.87
2022-12-31T22:09:23.736Z,81.85
2022-12-31T22:11:51.264Z,82.10
2022-12-31T22:14:18.788Z,82.02
2022-12-31T22:16:46.684Z,82.11
2022-12-31T22:19:14.394Z,82.17
2022-12-31T22:21:41.892Z,82.46
2022-12-31T22:24:09.780Z,82.34
2022-12-31T22:26:40.365Z,82.63
2022-12-31T22:29:12.433Z,82.51
2022-12-31T22:31:40.072Z,82.40
2022-12-31T22:34:07.777Z,82.43
2022-12-31T22:36:35.662Z,82.33
2022-12-31T22:39:03.200Z,82.47
2022-12-31T22:41:30.894Z,82.46
2022-12-31T22:44:04.118Z,82.59
2022-12-31T22:46:32.611Z,83.03
2022-12-31T22:49:02.768Z,83.09
2022-12-31T22:51:56.549Z,82.92
2022-12-31T22:54:19.131Z,82.89
2022-12-31T22:56:46.751Z,82.98
2022-12-31T22:59:14.316Z,83.04
2022-12-31T23:01:42.150Z,82.86
2022-12-31T23:04:09.946Z,82.77
2022-12-31T23:06:43.631Z,82.71
2022-12-31T23:09:31.960Z,82.59
2022-12-31T23:12:00.045Z,82.58
2022-12-31T23:14:46.590Z,82.67
2022-12-31T23:17:39.862Z,82.29
2022-12-31T23:20:32.204Z,82.57
2022-12-31T23:23:09.079Z,82.68
2022-12-31T23:25:50.498Z,82.69
2022-12-31T23:28:25.371Z,82.35
2022-12-31T23:30:53.783Z,83.02
2022-12-31T23:33:23.968Z,83.54
2022-12-31T23:36:02.328Z,83.62
2022-12-31T23:38:30.109Z,83.39
2022-12-31T23:40:57.663Z,83.82
2022-12-31T23:43:25.246Z,83.84
2022-12-31T23:45:53.480Z,83.62
2022-12-31T23:48:21.094Z,83.67
2022-12-31T23:50:53.352Z,83.57
2022-12-31T23:53:23.798Z,83.08
2022-12-31T23:55:52.415Z,83.21
2022-12-31T23:58:21.165Z,82.95
